Time;durP1;ratioP1;P1;durP2;ratioP2;P2;SDS_P1;SDS_P2;PMS_P1;PMS_P2;Temp;Humidity;BMP_temperature;BMP_pressure;BME280_temperature;BME280_humidity;BME280_pressure;Samples;Min_cycle;Max_cycle;Signal;HPM_P1;HPM_P2
2022/12/26 00:01:32;;;;;;;129.93;37.75;;;8.10;99.90;;;;;;5053884;28;20194;-61
2022/12/26 00:03:58;;;;;;;127.00;37.20;;;8.10;99.90;;;;;;5071815;28;20041;-61
2022/12/26 00:06:26;;;;;;;157.65;42.75;;;8.10;99.90;;;;;;5052966;28;20093;-61
2022/12/26 00:08:52;;;;;;;125.75;34.97;;;8.10;99.90;;;;;;5071712;28;20101;-61
2022/12/26 00:11:19;;;;;;;116.68;36.58;;;8.10;99.90;;;;;;5053507;28;20044;-61
2022/12/26 00:13:44;;;;;;;108.85;32.45;;;8.10;99.90;;;;;;5053021;28;20048;-62
2022/12/26 00:16:16;;;;;;;112.55;34.20;;;8.10;99.90;;;;;;5038876;28;20053;-61
2022/12/26 00:18:42;;;;;;;138.70;34.47;;;8.10;99.90;;;;;;5057575;28;20074;-61
2022/12/26 00:21:11;;;;;;;127.05;33.30;;;8.10;99.90;;;;;;5056864;28;20044;-62
2022/12/26 00:23:37;;;;;;;152.90;39.17;;;8.10;99.90;;;;;;5041012;28;20043;-61
2022/12/26 00:26:08;;;;;;;172.60;42.83;;;8.10;99.90;;;;;;5075296;28;20128;-61
2022/12/26 00:28:34;;;;;;;126.95;38.42;;;8.10;99.90;;;;;;5056865;28;20135;-61
2022/12/26 00:31:11;;;;;;;125.90;34.53;;;8.10;99.90;;;;;;5057363;28;20457;-61
2022/12/26 00:33:37;;;;;;;109.07;34.60;;;8.10;99.90;;;;;;5074724;28;20094;-61
2022/12/26 00:36:08;;;;;;;139.68;40.05;;;8.10;99.90;;;;;;5057246;28;20048;-61
2022/12/26 00:38:36;;;;;;;173.75;44.58;;;8.10;99.90;;;;;;5075329;28;20086;-61
2022/12/26 00:41:03;;;;;;;122.13;38.85;;;8.00;99.90;;;;;;5056242;28;20086;-62
2022/12/26 00:43:29;;;;;;;146.60;42.13;;;8.10;99.90;;;;;;5057491;28;20122;-61
2022/12/26 00:45:55;;;;;;;110.03;34.45;;;8.00;99.90;;;;;;5056889;28;20040;-61
2022/12/26 00:48:21;;;;;;;140.52;38.25;;;8.00;99.90;;;;;;5039684;28;20036;-62
2022/12/26 00:50:47;;;;;;;153.75;40.63;;;8.00;99.90;;;;;;5056940;28;20382;-62
2022/12/26 00:53:13;;;;;;;130.15;36.80;;;8.00;99.90;;;;;;5074616;28;20067;-61
2022/12/26 00:55:39;;;;;;;113.82;39.53;;;8.00;99.90;;;;;;5074226;28;20041;-62
2022/12/26 00:58:04;;;;;;;130.95;38.20;;;8.10;99.90;;;;;;5056925;28;20127;-61
2022/12/26 01:00:31;;;;;;;111.18;36.50;;;8.10;99.90;;;;;;5056994;28;20546;-61
2022/12/26 01:02:56;;;;;;;118.13;37.08;;;8.10;99.90;;;;;;5055934;28;20048;-62
2022/12/26 01:05:22;;;;;;;135.75;40.03;;;8.00;99.90;;;;;;5056655;28;20082;-62
2022/12/26 01:07:48;;;;;;;91.47;31.15;;;8.00;99.90;;;;;;5056531;28;20044;-62
2022/12/26 01:10:14;;;;;;;131.85;41.00;;;8.00;99.90;;;;;;5055914;28;20044;-61
2022/12/26 01:12:39;;;;;;;106.65;34.85;;;8.00;99.90;;;;;;5056792;28;20048;-61
2022/12/26 01:15:06;;;;;;;142.35;37.88;;;8.00;99.90;;;;;;5074223;28;20125;-61
2022/12/26 01:17:32;;;;;;;114.45;35.40;;;8.10;99.90;;;;;;5073846;28;20394;-61
2022/12/26 01:19:58;;;;;;;102.78;32.03;;;8.10;99.90;;;;;;5056655;28;20045;-61
2022/12/26 01:22:25;;;;;;;137.60;40.47;;;8.10;99.90;;;;;;5056232;28;20040;-61
2022/12/26 01:24:55;;;;;;;123.32;35.78;;;8.10;99.90;;;;;;5055595;28;20048;-62
2022/12/26 01:27:22;;;;;;;138.65;37.22;;;8.10;99.90;;;;;;5072983;28;20058;-61
2022/12/26 01:29:47;;;;;;;123.03;35.55;;;8.10;99.90;;;;;;5055621;28;20044;-62
2022/12/26 01:32:14;;;;;;;123.32;37.33;;;8.10;99.90;;;;;;5074127;28;20033;-61
2022/12/26 01:34:39;;;;;;;124.68;35.53;;;8.10;99.90;;;;;;5074274;28;20041;-61
2022/12/26 01:37:05;;;;;;;119.75;36.05;;;8.10;99.90;;;;;;5055014;28;20394;-62
2022/12/26 01:39:31;;;;;;;102.50;34.08;;;8.10;99.90;;;;;;5039413;28;20036;-62
2022/12/26 01:41:56;;;;;;;97.15;33.22;;;8.20;99.90;;;;;;5056021;28;20123;-61
2022/12/26 01:44:56;;;;;;;105.50;33.70;;;8.10;99.90;;;;;;5055248;28;20465;-61
2022/12/26 01:47:27;;;;;;;110.65;33.50;;;8.10;99.90;;;;;;5073715;28;20032;-61
2022/12/26 01:49:54;;;;;;;89.38;32.30;;;8.10;99.90;;;;;;5073866;28;20520;-61
2022/12/26 01:52:45;;;;;;;87.00;31.52;;;8.20;99.90;;;;;;5072964;28;20048;-62
2022/12/26 01:55:14;;;;;;;102.10;33.33;;;8.20;99.90;;;;;;5038437;28;20405;-61
2022/12/26 01:57:43;;;;;;;93.85;30.73;;;8.20;99.90;;;;;;5073799;28;20388;-62
2022/12/26 02:00:10;;;;;;;78.13;27.88;;;8.20;99.90;;;;;;5072903;28;20075;-61
2022/12/26 02:05:32;;;;;;;88.18;32.10;;;8.20;99.90;;;;;;5073731;28;20040;-61
2022/12/26 02:05:34;;;;;;;88.88;29.83;;;8.20;99.90;;;;;;5072546;28;20512;-61
2022/12/26 02:08:03;;;;;;;67.25;26.52;;;8.20;99.90;;;;;;5055306;28;20090;-62
2022/12/26 02:10:34;;;;;;;73.18;26.35;;;8.20;99.90;;;;;;5055636;28;20048;-62
2022/12/26 02:13:00;;;;;;;61.88;24.55;;;8.30;99.90;;;;;;5072437;28;20104;-62
2022/12/26 02:15:26;;;;;;;49.88;22.17;;;8.30;99.90;;;;;;5038658;28;20040;-62
2022/12/26 02:17:52;;;;;;;53.88;22.10;;;8.30;99.90;;;;;;5073299;28;20120;-62
2022/12/26 02:20:24;;;;;;;60.30;23.73;;;8.30;99.90;;;;;;5054448;28;20120;-62
2022/12/26 02:22:53;;;;;;;51.53;23.95;;;8.30;99.90;;;;;;5054997;28;20032;-62
2022/12/26 02:25:56;;;;;;;52.33;22.48;;;8.30;99.90;;;;;;5073188;28;20097;-62
2022/12/26 02:28:43;;;;;;;56.15;23.55;;;8.30;99.90;;;;;;5072658;28;20052;-61
2022/12/26 02:31:17;;;;;;;56.75;23.42;;;8.30;99.90;;;;;;5054898;28;20489;-62
2022/12/26 02:34:04;;;;;;;59.80;25.45;;;8.30;99.90;;;;;;5072308;28;20170;-62
2022/12/26 02:36:50;;;;;;;60.53;26.38;;;8.30;99.90;;;;;;5072886;28;20052;-62
2022/12/26 02:39:19;;;;;;;62.10;24.85;;;8.30;99.90;;;;;;5054639;28;20401;-62
2022/12/26 02:42:06;;;;;;;69.70;28.50;;;8.40;99.90;;;;;;5071837;28;20482;-62
2022/12/26 02:47:40;;;;;;;66.88;27.30;;;8.40;99.90;;;;;;5072103;28;20044;-62
2022/12/26 03:14:04;;;;;;;69.68;32.35;;;8.50;99.90;;;;;;5054336;28;20048;-61
2022/12/26 03:19:15;;;;;;;82.55;38.03;;;8.40;99.90;;;;;;5072056;28;20082;-61
2022/12/26 03:21:43;;;;;;;75.65;34.35;;;8.50;99.90;;;;;;5054397;28;20037;-62
2022/12/26 03:24:11;;;;;;;74.85;33.35;;;8.40;99.90;;;;;;5053320;28;20078;-61
2022/12/26 03:26:46;;;;;;;72.72;31.73;;;8.50;99.90;;;;;;5054433;28;20477;-62
2022/12/26 03:32:09;;;;;;;76.43;35.20;;;8.50;99.90;;;;;;5072006;28;20059;-61
2022/12/26 03:34:43;;;;;;;77.80;34.90;;;8.50;99.90;;;;;;5054364;28;20097;-61
2022/12/26 03:37:38;;;;;;;87.20;38.20;;;8.50;99.90;;;;;;5053591;28;20048;-62
2022/12/26 04:44:23;;;;;;;58.53;29.70;;;8.40;99.90;;;;;;5071168;28;20097;-62
2022/12/26 04:46:50;;;;;;;50.63;28.85;;;8.40;99.90;;;;;;5052597;28;20040;-61
2022/12/26 04:52:05;;;;;;;60.17;32.92;;;8.50;99.90;;;;;;5071207;28;20094;-62
2022/12/26 04:54:32;;;;;;;60.45;31.05;;;8.50;99.90;;;;;;5035974;28;20043;-62
2022/12/26 04:56:57;;;;;;;55.10;32.10;;;8.50;99.90;;;;;;5071136;28;20040;-61
2022/12/26 04:59:24;;;;;;;55.05;30.52;;;8.50;99.90;;;;;;5053161;28;20044;-61
2022/12/26 05:10:28;;;;;;;45.45;25.15;;;8.50;99.90;;;;;;5074651;28;20115;-61
2022/12/26 05:12:54;;;;;;;45.28;25.02;;;8.50;99.90;;;;;;5056605;28;20037;-61
2022/12/26 05:15:21;;;;;;;43.75;25.15;;;8.50;99.90;;;;;;5039093;28;20121;-61
2022/12/26 05:28:41;;;;;;;42.20;23.77;;;8.40;99.90;;;;;;5074313;28;20064;-61
2022/12/26 05:31:14;;;;;;;39.35;25.40;;;8.30;99.90;;;;;;5055542;28;20044;-61
2022/12/26 05:36:36;;;;;;;39.45;23.77;;;8.40;99.90;;;;;;5055214;28;20091;-61
2022/12/26 05:39:02;;;;;;;40.05;23.73;;;8.40;99.90;;;;;;5056077;28;20554;-62
2022/12/26 05:41:28;;;;;;;36.90;22.45;;;8.40;99.90;;;;;;5039528;28;20040;-61
2022/12/26 05:43:54;;;;;;;38.40;22.98;;;8.40;99.90;;;;;;5055246;28;20238;-61
2022/12/26 05:46:19;;;;;;;35.70;22.17;;;8.40;99.90;;;;;;5073816;28;20064;-61
2022/12/26 05:48:45;;;;;;;38.72;21.00;;;8.40;99.90;;;;;;5073922;28;20040;-62
2022/12/26 05:51:11;;;;;;;32.70;21.17;;;8.40;99.90;;;;;;5038236;28;20047;-61
2022/12/26 05:53:37;;;;;;;36.95;21.13;;;8.40;99.90;;;;;;5056580;28;20040;-61
2022/12/26 05:56:10;;;;;;;29.77;19.55;;;8.40;99.90;;;;;;5055826;28;20481;-61
2022/12/26 05:58:37;;;;;;;29.10;17.35;;;8.50;99.90;;;;;;5055512;28;20051;-61
2022/12/26 06:01:08;;;;;;;27.60;17.98;;;8.50;99.90;;;;;;5055840;28;20048;-61
2022/12/26 06:03:34;;;;;;;26.55;17.05;;;8.60;99.90;;;;;;5073715;28;20032;-61
2022/12/26 06:06:00;;;;;;;27.17;16.88;;;8.60;99.90;;;;;;5054872;28;20424;-61
2022/12/26 06:08:27;;;;;;;27.98;17.10;;;8.60;99.90;;;;;;5055485;28;20051;-61
2022/12/26 06:10:53;;;;;;;27.13;17.20;;;8.60;99.90;;;;;;5038942;28;20045;-61
2022/12/26 06:13:19;;;;;;;26.25;17.08;;;8.60;99.90;;;;;;5071855;28;20070;-61
2022/12/26 06:15:44;;;;;;;24.85;15.40;;;8.70;99.90;;;;;;5055336;28;20044;-61
2022/12/26 06:18:10;;;;;;;26.77;16.60;;;8.70;99.90;;;;;;5072395;28;20043;-61
2022/12/26 06:20:39;;;;;;;31.13;18.42;;;8.80;99.90;;;;;;5055625;28;20401;-61
2022/12/26 06:23:05;;;;;;;26.83;17.58;;;8.70;99.90;;;;;;5038747;28;20473;-61
2022/12/26 06:25:31;;;;;;;25.92;15.52;;;8.80;99.90;;;;;;5072602;28;20044;-61
2022/12/26 06:27:56;;;;;;;23.67;14.63;;;8.80;99.90;;;;;;5054891;28;20102;-61
2022/12/26 06:30:22;;;;;;;21.45;14.65;;;8.80;99.90;;;;;;5055137;28;20414;-61
2022/12/26 06:32:48;;;;;;;24.73;14.57;;;8.80;99.90;;;;;;5054410;28;20140;-62
2022/12/26 06:35:13;;;;;;;23.95;15.30;;;8.80;99.90;;;;;;5055148;28;20040;-61
2022/12/26 06:37:39;;;;;;;20.92;13.90;;;8.70;99.90;;;;;;5055136;28;20473;-61
2022/12/26 06:40:06;;;;;;;22.35;14.40;;;8.70;99.90;;;;;;5071812;28;20040;-61
2022/12/26 06:42:31;;;;;;;24.45;16.02;;;8.70;99.90;;;;;;5055118;28;20044;-61
2022/12/26 06:44:57;;;;;;;24.67;14.80;;;8.70;99.90;;;;;;5054838;28;20059;-62
2022/12/26 06:47:23;;;;;;;25.83;15.85;;;8.60;99.90;;;;;;5053908;28;20087;-61
2022/12/26 06:49:48;;;;;;;24.42;16.88;;;8.60;99.90;;;;;;5055073;28;20052;-61
2022/12/26 06:52:14;;;;;;;26.52;14.25;;;8.50;99.90;;;;;;5072675;28;20474;-61
2022/12/26 06:54:40;;;;;;;24.02;14.48;;;8.60;99.90;;;;;;5054185;28;20116;-61
2022/12/26 06:57:06;;;;;;;21.13;14.35;;;8.50;99.90;;;;;;5054113;28;20032;-61
2022/12/26 06:59:31;;;;;;;24.88;14.88;;;8.50;99.90;;;;;;5072538;28;20040;-61
2022/12/26 07:01:57;;;;;;;19.45;13.20;;;8.60;99.90;;;;;;5071466;28;20032;-62
2022/12/26 07:04:23;;;;;;;22.52;14.38;;;8.50;99.90;;;;;;5054397;28;20051;-62
2022/12/26 07:06:50;;;;;;;19.80;12.90;;;8.50;99.90;;;;;;5054577;28;20067;-61
2022/12/26 07:09:17;;;;;;;21.02;13.30;;;8.50;99.90;;;;;;5071505;28;20397;-60
2022/12/26 07:11:45;;;;;;;21.20;13.07;;;8.40;99.90;;;;;;5072099;28;20489;-61
2022/12/26 07:14:11;;;;;;;22.80;12.75;;;8.40;99.90;;;;;;5072260;28;20040;-60
2022/12/26 07:16:39;;;;;;;18.58;12.77;;;8.40;99.90;;;;;;5071501;28;20123;-61
2022/12/26 07:19:05;;;;;;;21.20;14.10;;;8.40;99.90;;;;;;5054212;28;20041;-60
2022/12/26 07:21:31;;;;;;;19.45;11.80;;;8.40;99.90;;;;;;5052338;28;20032;-61
2022/12/26 07:23:57;;;;;;;17.15;11.05;;;8.30;99.90;;;;;;5072321;28;20071;-61
2022/12/26 07:26:24;;;;;;;20.05;12.02;;;8.30;99.90;;;;;;5054590;28;20067;-60
2022/12/26 07:28:54;;;;;;;15.05;10.68;;;8.30;99.90;;;;;;5071473;28;20052;-60
2022/12/26 07:31:20;;;;;;;17.60;10.65;;;8.20;99.90;;;;;;5054486;28;20041;-61
2022/12/26 07:33:47;;;;;;;18.17;10.50;;;8.20;99.90;;;;;;5072296;28;20047;-61
2022/12/26 07:36:13;;;;;;;14.90;9.07;;;8.20;99.90;;;;;;5064546;28;20243;-61
2022/12/26 07:38:39;;;;;;;18.10;10.55;;;8.20;99.90;;;;;;5071245;28;20134;-60
2022/12/26 07:41:56;;;;;;;17.15;8.90;;;8.20;99.90;;;;;;5071748;28;20049;-61
2022/12/26 07:43:50;;;;;;;17.25;8.77;;;8.20;99.90;;;;;;5054225;28;20052;-60
2022/12/26 07:46:16;;;;;;;17.63;8.82;;;8.20;99.90;;;;;;5063357;28;20044;-61
2022/12/26 07:48:42;;;;;;;14.95;8.57;;;8.20;99.90;;;;;;5071998;28;20462;-60
2022/12/26 07:51:07;;;;;;;10.88;7.05;;;8.20;99.90;;;;;;5058755;28;20444;-62
2022/12/26 07:53:33;;;;;;;16.33;9.43;;;8.30;99.90;;;;;;5034331;28;20081;-61
2022/12/26 07:55:59;;;;;;;13.90;7.95;;;8.30;99.90;;;;;;5051721;28;20033;-61
2022/12/26 07:58:25;;;;;;;17.02;7.80;;;8.30;99.90;;;;;;5068145;28;20044;-61
2022/12/26 08:00:51;;;;;;;15.07;8.23;;;8.30;99.90;;;;;;5034709;28;20047;-61
2022/12/26 08:03:38;;;;;;;19.83;8.10;;;8.30;99.90;;;;;;5069621;28;20044;-61
2022/12/26 08:06:04;;;;;;;13.18;8.07;;;8.40;99.90;;;;;;5051366;28;20040;-61
2022/12/26 08:08:30;;;;;;;16.17;7.30;;;8.40;99.90;;;;;;5069337;28;20473;-61
2022/12/26 08:10:59;;;;;;;12.15;6.32;;;8.50;99.90;;;;;;5066178;28;20098;-61
2022/12/26 08:13:27;;;;;;;12.30;6.72;;;8.50;99.90;;;;;;5068125;28;20044;-61
2022/12/26 08:15:52;;;;;;;17.23;7.43;;;8.50;99.90;;;;;;5066525;28;20053;-61
2022/12/26 08:18:18;;;;;;;12.77;6.47;;;8.50;99.90;;;;;;5067466;28;20076;-61
2022/12/26 08:20:44;;;;;;;13.30;7.53;;;8.50;99.90;;;;;;5051477;28;20472;-61
2022/12/26 08:23:09;;;;;;;14.05;6.90;;;8.60;99.90;;;;;;5067342;28;20037;-61
2022/12/26 08:25:36;;;;;;;12.38;7.05;;;8.60;99.90;;;;;;5068069;28;20044;-61
2022/12/26 08:28:01;;;;;;;12.88;6.97;;;8.60;99.90;;;;;;5056689;28;20064;-61
2022/12/26 08:30:27;;;;;;;18.38;7.25;;;8.60;99.90;;;;;;5054640;28;20094;-61
2022/12/26 08:32:53;;;;;;;14.73;7.88;;;8.60;99.90;;;;;;5067123;28;20048;-61
2022/12/26 08:35:18;;;;;;;11.93;8.75;;;8.60;99.90;;;;;;5050760;28;20098;-60
2022/12/26 08:37:46;;;;;;;14.02;8.07;;;8.50;99.90;;;;;;5068209;28;20056;-60
2022/12/26 08:40:11;;;;;;;11.48;7.25;;;8.50;99.90;;;;;;5053388;28;20037;-60
2022/12/26 08:42:37;;;;;;;12.93;7.75;;;8.50;99.90;;;;;;5072271;28;20035;-60
2022/12/26 08:45:03;;;;;;;11.85;6.57;;;8.40;99.90;;;;;;5071621;28;20044;-60
2022/12/26 08:47:29;;;;;;;12.23;6.90;;;8.50;99.90;;;;;;5070751;28;20051;-60
2022/12/26 08:49:54;;;;;;;13.93;7.75;;;8.50;99.90;;;;;;5071941;28;20049;-60
2022/12/26 08:52:20;;;;;;;13.85;7.60;;;8.40;99.90;;;;;;5056121;28;20045;-60
2022/12/26 08:54:45;;;;;;;13.52;7.15;;;8.40;99.90;;;;;;5052569;28;20079;-60
2022/12/26 08:57:11;;;;;;;15.80;8.05;;;8.50;99.90;;;;;;5071941;28;20075;-60
2022/12/26 08:59:37;;;;;;;12.18;7.50;;;8.50;99.90;;;;;;5051918;28;20064;-60
2022/12/26 09:02:02;;;;;;;14.57;7.32;;;8.50;99.90;;;;;;5066435;28;20456;-60
2022/12/26 09:04:28;;;;;;;12.48;6.90;;;8.40;99.90;;;;;;5065819;28;20132;-60
2022/12/26 09:06:54;;;;;;;13.48;7.88;;;8.40;99.90;;;;;;5069568;28;20485;-60
2022/12/26 09:09:19;;;;;;;13.25;6.65;;;8.40;99.90;;;;;;5056605;28;20050;-60
2022/12/26 09:11:45;;;;;;;14.18;6.55;;;8.40;99.90;;;;;;5059378;28;20476;-60
2022/12/26 09:14:11;;;;;;;11.10;6.10;;;8.40;99.90;;;;;;5062183;28;20048;-60
2022/12/26 09:16:42;;;;;;;10.38;6.25;;;8.50;99.90;;;;;;5052870;28;20052;-60
2022/12/26 09:19:15;;;;;;;12.30;6.55;;;8.50;99.90;;;;;;5057288;28;20063;-60
2022/12/26 09:21:41;;;;;;;15.60;5.47;;;8.50;99.90;;;;;;5053002;28;20044;-60
2022/12/26 09:24:10;;;;;;;15.68;4.25;;;8.50;99.90;;;;;;5072121;28;20094;-60
2022/12/26 09:26:36;;;;;;;17.33;4.18;;;8.40;99.90;;;;;;5054961;28;20040;-61
2022/12/26 09:29:03;;;;;;;18.88;4.65;;;8.30;99.90;;;;;;5064917;28;20117;-60
2022/12/26 09:31:31;;;;;;;10.95;3.45;;;8.20;99.90;;;;;;5067977;28;20048;-60
2022/12/26 09:33:57;;;;;;;14.30;4.25;;;8.10;99.90;;;;;;5068822;28;20063;-62
2022/12/26 09:36:28;;;;;;;18.02;3.85;;;8.00;99.90;;;;;;5055343;28;20485;-61
2022/12/26 09:38:55;;;;;;;15.00;4.43;;;7.90;99.90;;;;;;5058024;28;20557;-61
2022/12/26 09:41:33;;;;;;;14.40;3.42;;;7.80;99.90;;;;;;5040579;28;20068;-61
2022/12/26 09:44:16;;;;;;;16.52;3.40;;;7.70;99.90;;;;;;5069800;28;20412;-61
2022/12/26 09:47:01;;;;;;;20.23;3.50;;;7.70;99.90;;;;;;5055488;28;20044;-61
2022/12/26 09:49:33;;;;;;;15.23;3.67;;;7.60;99.90;;;;;;5054299;28;20076;-61
2022/12/26 09:52:04;;;;;;;12.48;3.67;;;7.50;99.90;;;;;;5052743;28;20055;-61
2022/12/26 09:54:39;;;;;;;13.60;3.60;;;7.50;99.90;;;;;;5054498;28;20550;-61
2022/12/26 09:57:38;;;;;;;10.57;3.28;;;7.40;99.90;;;;;;5069783;28;20051;-61
2022/12/26 10:00:05;;;;;;;16.45;3.90;;;7.50;99.90;;;;;;5070880;28;20059;-60
2022/12/26 10:02:31;;;;;;;15.80;3.20;;;7.50;99.90;;;;;;5069614;28;20493;-61
2022/12/26 10:05:04;;;;;;;14.10;3.13;;;7.40;99.90;;;;;;5052459;28;20052;-61
2022/12/26 10:07:40;;;;;;;9.57;3.38;;;7.50;99.90;;;;;;5070780;28;20439;-61
2022/12/26 10:10:09;;;;;;;20.27;4.07;;;7.50;99.90;;;;;;5069865;28;20047;-61
2022/12/26 10:12:43;;;;;;;18.70;3.72;;;7.50;99.90;;;;;;5062548;28;20416;-60
2022/12/26 10:15:20;;;;;;;13.02;2.92;;;7.60;99.90;;;;;;5052522;28;20055;-62
2022/12/26 10:18:15;;;;;;;16.67;3.97;;;7.60;99.90;;;;;;5039967;28;20461;-60
2022/12/26 10:21:12;;;;;;;11.15;4.10;;;7.60;99.90;;;;;;5065422;28;20051;-61
2022/12/26 10:23:43;;;;;;;11.48;3.20;;;7.50;99.90;;;;;;5052797;28;20028;-61
2022/12/26 10:26:32;;;;;;;16.70;4.00;;;7.50;99.90;;;;;;5069416;28;20097;-61
2022/12/26 10:29:17;;;;;;;8.75;1.92;;;7.40;99.90;;;;;;5054005;28;20052;-60
2022/12/26 10:31:55;;;;;;;11.32;2.08;;;7.30;99.90;;;;;;5052075;28;20048;-61
2022/12/26 10:34:34;;;;;;;10.00;1.73;;;7.20;99.90;;;;;;5068007;28;20047;-61
2022/12/26 10:37:02;;;;;;;6.75;1.90;;;7.20;99.90;;;;;;5045037;28;20051;-61
2022/12/26 10:40:09;;;;;;;10.88;3.25;;;7.20;99.90;;;;;;5064443;28;20055;-61
2022/12/26 10:42:40;;;;;;;16.48;4.47;;;7.10;99.90;;;;;;5050418;28;20048;-61
2022/12/26 10:45:33;;;;;;;10.68;2.13;;;7.00;99.90;;;;;;5067665;28;20078;-62
2022/12/26 10:47:59;;;;;;;13.75;3.45;;;7.00;99.90;;;;;;5061048;28;20071;-61
2022/12/26 10:50:33;;;;;;;10.73;2.70;;;7.00;99.90;;;;;;5069005;28;20481;-61
2022/12/26 10:53:02;;;;;;;12.13;3.17;;;7.10;99.90;;;;;;5050544;28;20041;-61
2022/12/26 10:55:33;;;;;;;11.35;2.47;;;7.00;99.90;;;;;;5059609;28;20040;-61
2022/12/26 10:58:06;;;;;;;8.85;2.10;;;7.10;99.90;;;;;;5068541;28;20477;-61
2022/12/26 11:00:33;;;;;;;12.73;2.33;;;7.10;99.90;;;;;;5036876;28;20063;-62
2022/12/26 11:03:05;;;;;;;11.20;2.03;;;7.10;99.90;;;;;;5069170;28;20514;-61
2022/12/26 11:05:32;;;;;;;9.30;2.33;;;7.10;99.90;;;;;;5063905;28;20040;-61
2022/12/26 11:08:34;;;;;;;7.40;1.77;;;7.10;99.90;;;;;;5057456;28;20079;-61
2022/12/26 11:11:13;;;;;;;12.75;2.08;;;7.00;99.90;;;;;;5053351;28;20052;-61
2022/12/26 11:13:51;;;;;;;6.95;1.85;;;7.00;99.90;;;;;;5055368;28;20053;-61
2022/12/26 11:16:32;;;;;;;12.90;2.35;;;7.00;99.90;;;;;;5043669;28;20409;-61
2022/12/26 11:18:58;;;;;;;14.73;2.72;;;7.00;99.90;;;;;;5059886;28;20040;-61
2022/12/26 11:21:26;;;;;;;14.35;3.45;;;7.00;99.90;;;;;;5050791;28;20113;-61
2022/12/26 11:24:05;;;;;;;10.40;2.60;;;7.00;99.90;;;;;;5038136;28;20041;-61
2022/12/26 11:26:31;;;;;;;15.45;3.33;;;7.00;99.90;;;;;;5065683;28;20063;-61
2022/12/26 11:29:26;;;;;;;11.82;2.72;;;7.00;99.90;;;;;;5057899;28;20040;-61
2022/12/26 11:31:57;;;;;;;14.57;2.60;;;7.00;99.90;;;;;;5038960;28;20051;-61
2022/12/26 11:34:36;;;;;;;16.00;3.08;;;7.00;99.90;;;;;;5058687;28;20083;-60
2022/12/26 11:37:04;;;;;;;13.68;2.75;;;7.10;99.90;;;;;;5071160;28;20056;-61
2022/12/26 11:39:33;;;;;;;16.40;2.63;;;7.10;99.90;;;;;;5058702;28;20047;-61
2022/12/26 11:41:59;;;;;;;9.30;2.65;;;7.10;99.90;;;;;;5056033;28;20509;-61
2022/12/26 11:44:33;;;;;;;13.32;2.92;;;7.10;99.90;;;;;;5071763;28;20043;-61
2022/12/26 11:47:16;;;;;;;13.80;3.80;;;7.10;99.90;;;;;;5071728;28;20055;-61
2022/12/26 11:49:51;;;;;;;11.30;3.10;;;7.10;99.90;;;;;;5071130;28;20044;-61
2022/12/26 11:52:43;;;;;;;16.10;2.58;;;7.10;99.90;;;;;;5053930;28;20131;-61
2022/12/26 11:55:21;;;;;;;12.35;2.95;;;7.10;99.90;;;;;;5053785;28;20093;-61
2022/12/26 11:58:07;;;;;;;11.23;3.35;;;7.20;99.90;;;;;;5053171;28;20040;-61
2022/12/26 12:01:01;;;;;;;11.05;2.72;;;7.20;99.90;;;;;;5072178;28;20032;-61
2022/12/26 12:03:33;;;;;;;13.95;4.45;;;7.20;99.90;;;;;;5036462;28;20048;-61
2022/12/26 12:06:36;;;;;;;11.50;3.13;;;7.20;99.90;;;;;;5053730;28;20044;-61
2022/12/26 12:09:29;;;;;;;12.55;2.80;;;7.20;99.90;;;;;;5053910;28;20447;-61
2022/12/26 12:12:07;;;;;;;12.75;3.88;;;7.20;99.90;;;;;;5054654;28;20044;-61
2022/12/26 12:15:17;;;;;;;9.85;2.97;;;7.20;99.90;;;;;;5058213;28;20391;-61
2022/12/26 12:18:18;;;;;;;13.85;3.30;;;7.30;99.90;;;;;;5063471;28;20063;-61
2022/12/26 12:20:59;;;;;;;11.30;2.95;;;7.20;99.90;;;;;;5075360;28;20047;-61
2022/12/26 12:23:40;;;;;;;17.90;3.97;;;7.20;99.90;;;;;;5057653;28;20045;-61
2022/12/26 12:26:20;;;;;;;10.63;2.80;;;7.20;99.90;;;;;;5074784;28;20040;-61
2022/12/26 12:29:07;;;;;;;13.00;3.42;;;7.20;99.90;;;;;;5057387;28;20135;-61
2022/12/26 12:31:48;;;;;;;14.23;3.50;;;7.20;99.90;;;;;;5057018;28;20041;-61
2022/12/26 12:34:25;;;;;;;9.27;2.53;;;7.20;99.90;;;;;;5057298;28;20041;-61
2022/12/26 12:37:28;;;;;;;10.55;3.22;;;7.20;99.90;;;;;;5040790;28;20036;-61
2022/12/26 12:40:02;;;;;;;19.15;4.05;;;7.20;99.90;;;;;;5056654;28;20693;-61
2022/12/26 12:42:28;;;;;;;12.05;3.90;;;7.30;99.90;;;;;;5056869;28;20584;-61
2022/12/26 12:45:15;;;;;;;12.57;3.10;;;7.30;99.90;;;;;;5056233;28;20044;-61
2022/12/26 12:48:04;;;;;;;20.35;5.28;;;7.30;99.90;;;;;;5075030;28;20041;-61
2022/12/26 12:50:41;;;;;;;14.30;3.33;;;7.20;99.90;;;;;;5061583;28;20516;-61
2022/12/26 12:53:17;;;;;;;17.05;3.90;;;7.10;99.90;;;;;;5056619;28;20047;-62
2022/12/26 12:55:42;;;;;;;;;;;7.10;99.90;;;;;;5041061;28;20124;-61
2022/12/26 12:58:40;;;;;;;14.05;3.08;;;7.10;99.90;;;;;;5057031;28;20002;-61
2022/12/26 13:01:28;;;;;;;10.48;2.80;;;7.10;99.90;;;;;;5073778;28;20449;-61
2022/12/26 13:04:09;;;;;;;9.63;1.98;;;7.10;99.90;;;;;;5074885;28;20036;-61
2022/12/26 13:06:48;;;;;;;10.65;2.65;;;7.10;99.90;;;;;;5074201;28;20044;-61
2022/12/26 13:09:22;;;;;;;9.65;2.53;;;7.10;99.90;;;;;;5074649;28;20493;-61
2022/12/26 13:11:54;;;;;;;8.93;2.63;;;7.00;99.90;;;;;;5074754;28;20119;-61
2022/12/26 13:14:34;;;;;;;9.55;3.08;;;7.00;99.90;;;;;;5055815;28;20044;-61
2022/12/26 13:17:06;;;;;;;13.73;2.95;;;7.00;99.90;;;;;;5039817;28;20091;-61
2022/12/26 13:19:44;;;;;;;11.75;2.90;;;7.00;99.90;;;;;;5056757;28;20052;-61
2022/12/26 13:22:26;;;;;;;11.32;2.70;;;7.00;99.90;;;;;;5073554;28;20511;-61
2022/12/26 13:24:58;;;;;;;10.70;2.83;;;7.00;99.90;;;;;;5055741;28;20044;-61
2022/12/26 13:27:29;;;;;;;9.35;2.03;;;7.00;99.90;;;;;;5073240;28;20056;-61
2022/12/26 13:29:55;;;;;;;13.15;2.22;;;7.00;99.90;;;;;;5039696;28;20134;-61
2022/12/26 13:32:27;;;;;;;14.02;2.95;;;7.00;99.90;;;;;;5056469;28;20072;-61
2022/12/26 13:34:55;;;;;;;10.55;3.03;;;7.00;99.90;;;;;;5055354;28;20062;-61
2022/12/26 13:37:39;;;;;;;9.95;2.05;;;6.90;99.90;;;;;;5056298;28;20040;-61
2022/12/26 13:40:20;;;;;;;12.25;2.90;;;6.90;99.90;;;;;;5074086;28;20120;-61
2022/12/26 13:45:41;;;;;;;14.43;3.38;;;6.90;99.90;;;;;;5056231;28;20497;-61
2022/12/26 13:48:16;;;;;;;11.82;3.20;;;6.90;99.90;;;;;;5055763;28;20127;-61
2022/12/26 13:50:53;;;;;;;13.88;3.25;;;6.90;99.90;;;;;;5056078;28;20048;-61
2022/12/26 13:53:24;;;;;;;16.70;3.53;;;6.80;99.90;;;;;;5056080;28;20052;-61
2022/12/26 13:55:52;;;;;;;13.95;2.70;;;6.80;99.90;;;;;;5054324;28;20044;-61
2022/12/26 13:58:21;;;;;;;12.82;3.42;;;6.70;99.90;;;;;;5044307;28;20041;-62
2022/12/26 14:00:49;;;;;;;11.13;2.50;;;6.70;99.90;;;;;;5044365;28;20032;-61
2022/12/26 14:03:22;;;;;;;10.13;2.28;;;6.70;99.90;;;;;;5072169;28;20094;-61
2022/12/26 14:05:56;;;;;;;11.40;3.00;;;6.70;99.90;;;;;;5069686;28;20461;-61
2022/12/26 14:08:41;;;;;;;13.10;3.47;;;6.70;99.90;;;;;;5059914;28;20079;-62
2022/12/26 14:11:44;;;;;;;11.85;3.38;;;6.80;99.90;;;;;;5060406;28;20048;-61
2022/12/26 14:14:38;;;;;;;12.38;3.05;;;6.80;99.90;;;;;;5051832;28;20140;-61
2022/12/26 14:17:24;;;;;;;12.68;3.20;;;6.70;99.90;;;;;;5067146;28;20040;-61
2022/12/26 14:20:02;;;;;;;15.82;2.97;;;6.70;99.90;;;;;;5070965;28;20045;-61
2022/12/26 14:22:50;;;;;;;11.27;3.20;;;6.70;99.90;;;;;;5070775;28;20120;-61
2022/12/26 14:25:21;;;;;;;13.60;2.90;;;6.60;99.90;;;;;;5053426;28;20040;-61
2022/12/26 14:27:59;;;;;;;13.07;3.08;;;6.60;99.90;;;;;;5051956;28;20056;-61
2022/12/26 14:30:39;;;;;;;10.98;2.90;;;6.50;99.90;;;;;;5069584;28;20041;-61
2022/12/26 14:33:19;;;;;;;11.07;2.80;;;6.40;99.90;;;;;;5051739;28;20083;-61
2022/12/26 14:36:19;;;;;;;12.40;2.80;;;6.40;99.90;;;;;;5069271;28;20036;-61
2022/12/26 14:38:48;;;;;;;9.60;2.75;;;6.40;99.90;;;;;;5058201;28;20047;-61
2022/12/26 14:44:19;;;;;;;18.73;4.32;;;6.30;99.90;;;;;;5069342;28;20067;-61
2022/12/26 14:46:47;;;;;;;9.60;3.17;;;6.20;99.90;;;;;;5069309;28;20052;-61
2022/12/26 14:49:21;;;;;;;12.05;3.53;;;6.20;99.90;;;;;;5068746;28;20052;-61
2022/12/26 14:51:46;;;;;;;14.35;4.80;;;6.10;99.90;;;;;;5067744;28;20053;-61
2022/12/26 14:54:21;;;;;;;10.98;4.60;;;6.10;99.90;;;;;;5069354;28;20040;-61
2022/12/26 14:56:48;;;;;;;6.43;2.58;;;6.10;99.90;;;;;;5059274;28;20068;-61
2022/12/26 14:59:33;;;;;;;15.57;3.67;;;6.10;99.90;;;;;;5059976;28;20374;-61
2022/12/26 15:02:00;;;;;;;11.50;2.90;;;6.10;99.90;;;;;;5068573;28;20055;-61
2022/12/26 15:04:41;;;;;;;12.18;3.30;;;6.00;99.90;;;;;;5051567;28;20040;-61
2022/12/26 15:07:53;;;;;;;11.35;3.08;;;6.00;99.90;;;;;;5067639;28;20558;-61
2022/12/26 15:10:40;;;;;;;6.57;2.55;;;6.00;99.90;;;;;;5069396;28;20442;-61
2022/12/26 15:13:32;;;;;;;9.10;2.40;;;6.00;99.90;;;;;;5068456;28;20449;-61
2022/12/26 15:16:23;;;;;;;12.35;2.30;;;5.90;99.90;;;;;;5035031;28;20085;-61
2022/12/26 15:18:58;;;;;;;13.50;2.10;;;5.90;99.90;;;;;;5051291;28;20047;-61